Terminal Aerodrome Forecast
Issued by NWS Wakefield, VA

Home | Current Version | Previous Version | Text Only | Print | Product List | Glossary On
Versions: 1 2 3 4 5 6 7 8 9 10 11 12 13 14 15 16
894
FTUS41 KAKQ 241739
TAFSBY
TAF
KSBY 241739Z 2418/2518 11014G21KT P6SM OVC130
     FM242100 11014G22KT 5SM RA SCT025 BKN050
     FM250000 11014G22KT 3SM RA OVC012
     FM250500 12012KT P6SM OVC008
     FM251200 14007KT P6SM SCT008 BKN015
     FM251400 18006KT P6SM BKN025=

USA.gov is the U.S. government's official web portal to all federal, state and local government web resources and services.